sensor_id;sensor_type;location;lat;lon;timestamp;temperature;humidity
71627;DHT22;59475;52.464;13.590;2023-07-13T00:02:14;17.86;75.10
71627;DHT22;59475;52.464;13.590;2023-07-13T00:04:40;17.83;75.11
71627;DHT22;59475;52.464;13.590;2023-07-13T00:07:05;17.83;75.16
71627;DHT22;59475;52.464;13.590;2023-07-13T00:09:31;17.78;75.38
71627;DHT22;59475;52.464;13.590;2023-07-13T00:11:57;17.72;75.30
71627;DHT22;59475;52.464;13.590;2023-07-13T00:14:24;17.62;75.69
71627;DHT22;59475;52.464;13.590;2023-07-13T00:16:50;17.57;75.70
71627;DHT22;59475;52.464;13.590;2023-07-13T00:19:16;17.54;75.99
71627;DHT22;59475;52.464;13.590;2023-07-13T00:21:42;17.44;76.24
71627;DHT22;59475;52.464;13.590;2023-07-13T00:24:11;17.35;76.46
71627;DHT22;59475;52.464;13.590;2023-07-13T00:26:38;17.34;76.80
71627;DHT22;59475;52.464;13.590;2023-07-13T00:29:04;17.35;76.77
71627;DHT22;59475;52.464;13.590;2023-07-13T00:31:33;17.37;76.40
71627;DHT22;59475;52.464;13.590;2023-07-13T00:33:59;17.38;76.50
71627;DHT22;59475;52.464;13.590;2023-07-13T00:36:25;17.42;76.55
71627;DHT22;59475;52.464;13.590;2023-07-13T00:38:51;17.42;76.28
71627;DHT22;59475;52.464;13.590;2023-07-13T00:41:17;17.42;76.24
71627;DHT22;59475;52.464;13.590;2023-07-13T00:43:42;17.44;76.39
71627;DHT22;59475;52.464;13.590;2023-07-13T00:46:31;17.45;76.51
71627;DHT22;59475;52.464;13.590;2023-07-13T00:49:02;17.45;76.59
71627;DHT22;59475;52.464;13.590;2023-07-13T00:54:50;17.32;76.63
71627;DHT22;59475;52.464;13.590;2023-07-13T00:57:19;17.30;76.85
71627;DHT22;59475;52.464;13.590;2023-07-13T00:59:48;17.27;77.11
71627;DHT22;59475;52.464;13.590;2023-07-13T01:02:14;17.24;76.89
71627;DHT22;59475;52.464;13.590;2023-07-13T01:04:41;17.24;76.87
71627;DHT22;59475;52.464;13.590;2023-07-13T01:07:09;17.20;77.00
71627;DHT22;59475;52.464;13.590;2023-07-13T01:09:35;17.17;77.24
71627;DHT22;59475;52.464;13.590;2023-07-13T01:12:00;17.13;77.54
71627;DHT22;59475;52.464;13.590;2023-07-13T01:14:26;17.09;77.74
71627;DHT22;59475;52.464;13.590;2023-07-13T01:16:52;17.02;77.58
71627;DHT22;59475;52.464;13.590;2023-07-13T01:19:35;16.97;77.44
71627;DHT22;59475;52.464;13.590;2023-07-13T01:22:05;16.94;77.66
71627;DHT22;59475;52.464;13.590;2023-07-13T01:24:37;16.94;77.97
71627;DHT22;59475;52.464;13.590;2023-07-13T01:27:04;16.96;78.30
71627;DHT22;59475;52.464;13.590;2023-07-13T01:29:31;16.87;78.98
71627;DHT22;59475;52.464;13.590;2023-07-13T01:31:57;16.80;79.31
71627;DHT22;59475;52.464;13.590;2023-07-13T01:37:44;16.76;79.44
71627;DHT22;59475;52.464;13.590;2023-07-13T01:40:10;16.73;79.23
71627;DHT22;59475;52.464;13.590;2023-07-13T01:42:36;16.75;79.25
71627;DHT22;59475;52.464;13.590;2023-07-13T01:45:02;16.73;79.18
71627;DHT22;59475;52.464;13.590;2023-07-13T01:47:28;16.73;79.21
71627;DHT22;59475;52.464;13.590;2023-07-13T01:49:56;16.73;79.11
71627;DHT22;59475;52.464;13.590;2023-07-13T01:52:21;16.65;79.43
71627;DHT22;59475;52.464;13.590;2023-07-13T01:54:47;16.59;79.71
71627;DHT22;59475;52.464;13.590;2023-07-13T01:57:12;16.56;79.85
71627;DHT22;59475;52.464;13.590;2023-07-13T01:59:38;16.52;80.05
71627;DHT22;59475;52.464;13.590;2023-07-13T02:02:03;16.54;79.88
71627;DHT22;59475;52.464;13.590;2023-07-13T02:04:29;16.52;79.80
71627;DHT22;59475;52.464;13.590;2023-07-13T02:06:54;16.45;80.12
71627;DHT22;59475;52.464;13.590;2023-07-13T02:09:20;16.34;80.32
71627;DHT22;59475;52.464;13.590;2023-07-13T02:15:08;16.35;80.38
71627;DHT22;59475;52.464;13.590;2023-07-13T02:17:35;16.37;80.35
71627;DHT22;59475;52.464;13.590;2023-07-13T02:20:01;16.35;80.48
71627;DHT22;59475;52.464;13.590;2023-07-13T02:22:26;16.29;80.68
71627;DHT22;59475;52.464;13.590;2023-07-13T02:24:52;16.24;80.81
71627;DHT22;59475;52.464;13.590;2023-07-13T02:27:17;16.18;80.86
71627;DHT22;59475;52.464;13.590;2023-07-13T02:29:43;16.14;81.01
71627;DHT22;59475;52.464;13.590;2023-07-13T02:32:08;16.10;81.07
71627;DHT22;59475;52.464;13.590;2023-07-13T02:34:34;16.04;81.12
71627;DHT22;59475;52.464;13.590;2023-07-13T02:36:59;16.03;81.17
71627;DHT22;59475;52.464;13.590;2023-07-13T02:39:25;15.99;81.26
71627;DHT22;59475;52.464;13.590;2023-07-13T02:41:50;15.97;81.29
71627;DHT22;59475;52.464;13.590;2023-07-13T02:44:15;15.94;81.31
71627;DHT22;59475;52.464;13.590;2023-07-13T02:46:41;15.94;81.43
71627;DHT22;59475;52.464;13.590;2023-07-13T02:49:06;15.89;81.72
71627;DHT22;59475;52.464;13.590;2023-07-13T02:51:32;15.87;81.53
71627;DHT22;59475;52.464;13.590;2023-07-13T02:54:00;15.87;81.76
71627;DHT22;59475;52.464;13.590;2023-07-13T02:56:27;15.82;81.89
71627;DHT22;59475;52.464;13.590;2023-07-13T02:58:53;15.83;81.97
71627;DHT22;59475;52.464;13.590;2023-07-13T03:01:20;15.85;82.06
71627;DHT22;59475;52.464;13.590;2023-07-13T03:07:08;15.79;82.53
71627;DHT22;59475;52.464;13.590;2023-07-13T03:09:34;15.78;82.51
71627;DHT22;59475;52.464;13.590;2023-07-13T03:12:00;15.78;82.47
71627;DHT22;59475;52.464;13.590;2023-07-13T03:14:26;15.76;82.43
71627;DHT22;59475;52.464;13.590;2023-07-13T03:16:51;15.76;82.35
71627;DHT22;59475;52.464;13.590;2023-07-13T03:19:17;15.79;82.47
71627;DHT22;59475;52.464;13.590;2023-07-13T03:21:43;15.73;82.85
71627;DHT22;59475;52.464;13.590;2023-07-13T03:24:08;15.62;83.10
71627;DHT22;59475;52.464;13.590;2023-07-13T03:26:33;15.51;83.45
71627;DHT22;59475;52.464;13.590;2023-07-13T03:28:59;15.53;83.51
71627;DHT22;59475;52.464;13.590;2023-07-13T03:31:27;15.55;83.72
71627;DHT22;59475;52.464;13.590;2023-07-13T03:33:54;15.53;83.71
71627;DHT22;59475;52.464;13.590;2023-07-13T03:36:22;15.55;83.63
71627;DHT22;59475;52.464;13.590;2023-07-13T03:38:52;15.61;83.53
71627;DHT22;59475;52.464;13.590;2023-07-13T03:41:18;15.65;83.47
71627;DHT22;59475;52.464;13.590;2023-07-13T03:43:44;15.69;83.40
71627;DHT22;59475;52.464;13.590;2023-07-13T03:46:09;15.70;83.42
71627;DHT22;59475;52.464;13.590;2023-07-13T03:48:35;15.69;83.46
71627;DHT22;59475;52.464;13.590;2023-07-13T03:51:01;15.66;83.44
71627;DHT22;59475;52.464;13.590;2023-07-13T03:53:26;15.72;83.60
71627;DHT22;59475;52.464;13.590;2023-07-13T03:55:52;15.74;83.50
71627;DHT22;59475;52.464;13.590;2023-07-13T03:58:44;15.73;83.47
71627;DHT22;59475;52.464;13.590;2023-07-13T04:01:11;15.80;83.39
71627;DHT22;59475;52.464;13.590;2023-07-13T04:03:37;15.86;83.64
71627;DHT22;59475;52.464;13.590;2023-07-13T04:06:07;15.96;83.58
71627;DHT22;59475;52.464;13.590;2023-07-13T04:08:35;16.01;83.56
71627;DHT22;59475;52.464;13.590;2023-07-13T04:11:02;16.08;83.54
71627;DHT22;59475;52.464;13.590;2023-07-13T04:13:27;16.17;83.50
71627;DHT22;59475;52.464;13.590;2023-07-13T04:15:53;16.24;83.21
71627;DHT22;59475;52.464;13.590;2023-07-13T04:18:19;16.32;83.24
71627;DHT22;59475;52.464;13.590;2023-07-13T04:20:46;16.44;83.16
71627;DHT22;59475;52.464;13.590;2023-07-13T04:23:12;16.52;83.10
71627;DHT22;59475;52.464;13.590;2023-07-13T04:25:37;16.61;82.99
71627;DHT22;59475;52.464;13.590;2023-07-13T04:28:04;16.69;82.25
71627;DHT22;59475;52.464;13.590;2023-07-13T04:30:30;16.77;82.40
71627;DHT22;59475;52.464;13.590;2023-07-13T04:32:55;16.86;82.17
71627;DHT22;59475;52.464;13.590;2023-07-13T04:35:21;17.06;81.76
71627;DHT22;59475;52.464;13.590;2023-07-13T04:37:48;17.19;81.27
71627;DHT22;59475;52.464;13.590;2023-07-13T04:40:16;17.32;80.36
71627;DHT22;59475;52.464;13.590;2023-07-13T04:42:42;17.45;80.60
71627;DHT22;59475;52.464;13.590;2023-07-13T04:45:07;17.58;80.15
71627;DHT22;59475;52.464;13.590;2023-07-13T04:47:33;17.65;79.43
71627;DHT22;59475;52.464;13.590;2023-07-13T04:49:58;17.78;78.93
71627;DHT22;59475;52.464;13.590;2023-07-13T04:52:24;17.90;78.52
71627;DHT22;59475;52.464;13.590;2023-07-13T04:58:11;18.33;76.79
71627;DHT22;59475;52.464;13.590;2023-07-13T05:00:36;18.44;76.98
71627;DHT22;59475;52.464;13.590;2023-07-13T05:03:02;18.57;76.33
71627;DHT22;59475;52.464;13.590;2023-07-13T05:05:28;18.62;76.45
71627;DHT22;59475;52.464;13.590;2023-07-13T05:07:54;18.73;75.77
71627;DHT22;59475;52.464;13.590;2023-07-13T05:10:19;18.91;74.36
71627;DHT22;59475;52.464;13.590;2023-07-13T05:12:45;19.07;73.88
71627;DHT22;59475;52.464;13.590;2023-07-13T05:15:11;19.19;73.02
71627;DHT22;59475;52.464;13.590;2023-07-13T05:17:37;19.28;72.37
71627;DHT22;59475;52.464;13.590;2023-07-13T05:20:05;19.37;71.09
71627;DHT22;59475;52.464;13.590;2023-07-13T05:22:31;19.40;71.20
71627;DHT22;59475;52.464;13.590;2023-07-13T05:24:56;19.49;71.21
71627;DHT22;59475;52.464;13.590;2023-07-13T05:27:21;19.54;70.18
71627;DHT22;59475;52.464;13.590;2023-07-13T05:29:47;19.63;69.75
71627;DHT22;59475;52.464;13.590;2023-07-13T05:32:12;19.72;69.89
71627;DHT22;59475;52.464;13.590;2023-07-13T05:34:37;19.85;70.62
71627;DHT22;59475;52.464;13.590;2023-07-13T05:37:03;19.92;69.96
71627;DHT22;59475;52.464;13.590;2023-07-13T05:39:28;20.09;69.84
71627;DHT22;59475;52.464;13.590;2023-07-13T05:41:54;20.16;69.04
71627;DHT22;59475;52.464;13.590;2023-07-13T05:44:19;20.25;68.18
71627;DHT22;59475;52.464;13.590;2023-07-13T05:46:45;20.34;68.69
71627;DHT22;59475;52.464;13.590;2023-07-13T05:49:10;20.50;68.97
71627;DHT22;59475;52.464;13.590;2023-07-13T05:51:36;20.57;66.99
71627;DHT22;59475;52.464;13.590;2023-07-13T05:54:01;20.64;66.96
71627;DHT22;59475;52.464;13.590;2023-07-13T05:56:26;20.81;66.64
71627;DHT22;59475;52.464;13.590;2023-07-13T06:02:13;21.06;64.79
71627;DHT22;59475;52.464;13.590;2023-07-13T06:04:39;21.05;65.34
71627;DHT22;59475;52.464;13.590;2023-07-13T06:07:04;21.01;64.35
71627;DHT22;59475;52.464;13.590;2023-07-13T06:09:30;20.99;64.95
71627;DHT22;59475;52.464;13.590;2023-07-13T06:11:55;21.08;64.54
71627;DHT22;59475;52.464;13.590;2023-07-13T06:14:20;21.16;63.87
71627;DHT22;59475;52.464;13.590;2023-07-13T06:16:46;21.15;63.25
71627;DHT22;59475;52.464;13.590;2023-07-13T06:19:11;21.11;64.44
71627;DHT22;59475;52.464;13.590;2023-07-13T06:21:36;21.11;63.99
71627;DHT22;59475;52.464;13.590;2023-07-13T06:24:02;21.28;64.14
71627;DHT22;59475;52.464;13.590;2023-07-13T06:26:27;21.56;63.14
71627;DHT22;59475;52.464;13.590;2023-07-13T06:28:53;21.67;62.77
71627;DHT22;59475;52.464;13.590;2023-07-13T06:31:18;21.66;62.79
71627;DHT22;59475;52.464;13.590;2023-07-13T06:33:44;21.35;62.13
71627;DHT22;59475;52.464;13.590;2023-07-13T06:36:09;21.29;63.13
71627;DHT22;59475;52.464;13.590;2023-07-13T06:38:35;21.19;62.88
71627;DHT22;59475;52.464;13.590;2023-07-13T06:41:01;21.25;62.60
71627;DHT22;59475;52.464;13.590;2023-07-13T06:43:26;21.36;62.44
71627;DHT22;59475;52.464;13.590;2023-07-13T06:45:54;21.68;61.72
71627;DHT22;59475;52.464;13.590;2023-07-13T06:48:21;21.98;60.77
71627;DHT22;59475;52.464;13.590;2023-07-13T06:50:48;22.38;60.94
71627;DHT22;59475;52.464;13.590;2023-07-13T06:53:14;22.76;58.94
71627;DHT22;59475;52.464;13.590;2023-07-13T06:55:40;22.76;58.00
71627;DHT22;59475;52.464;13.590;2023-07-13T06:58:06;23.14;57.16
71627;DHT22;59475;52.464;13.590;2023-07-13T07:00:31;23.29;56.62
71627;DHT22;59475;52.464;13.590;2023-07-13T07:02:57;23.34;56.07
71627;DHT22;59475;52.464;13.590;2023-07-13T07:05:22;23.10;56.52
71627;DHT22;59475;52.464;13.590;2023-07-13T07:07:49;23.44;55.67
71627;DHT22;59475;52.464;13.590;2023-07-13T07:10:15;23.84;54.45
71627;DHT22;59475;52.464;13.590;2023-07-13T07:12:40;24.34;53.78
71627;DHT22;59475;52.464;13.590;2023-07-13T07:15:06;24.82;52.61
71627;DHT22;59475;52.464;13.590;2023-07-13T07:17:31;25.26;52.02
71627;DHT22;59475;52.464;13.590;2023-07-13T07:19:57;25.64;51.83
71627;DHT22;59475;52.464;13.590;2023-07-13T07:22:22;25.64;50.45
71627;DHT22;59475;52.464;13.590;2023-07-13T07:24:47;25.44;49.72
71627;DHT22;59475;52.464;13.590;2023-07-13T07:27:13;25.68;49.48
71627;DHT22;59475;52.464;13.590;2023-07-13T07:33:00;25.84;48.90
71627;DHT22;59475;52.464;13.590;2023-07-13T07:35:26;25.82;48.83
71627;DHT22;59475;52.464;13.590;2023-07-13T07:37:52;25.42;49.13
71627;DHT22;59475;52.464;13.590;2023-07-13T07:40:18;25.90;48.92
71627;DHT22;59475;52.464;13.590;2023-07-13T07:42:43;25.06;50.83
71627;DHT22;59475;52.464;13.590;2023-07-13T07:45:09;24.82;51.06
71627;DHT22;59475;52.464;13.590;2023-07-13T07:50:58;26.04;48.81
71627;DHT22;59475;52.464;13.590;2023-07-13T07:53:23;26.37;49.15
71627;DHT22;59475;52.464;13.590;2023-07-13T07:55:49;26.94;47.65
71627;DHT22;59475;52.464;13.590;2023-07-13T07:58:15;27.72;46.97
71627;DHT22;59475;52.464;13.590;2023-07-13T08:00:40;28.59;44.71
71627;DHT22;59475;52.464;13.590;2023-07-13T08:03:06;28.77;43.10
71627;DHT22;59475;52.464;13.590;2023-07-13T08:05:31;29.02;42.37
71627;DHT22;59475;52.464;13.590;2023-07-13T08:07:56;29.12;42.08
71627;DHT22;59475;52.464;13.590;2023-07-13T08:10:22;28.84;42.68
71627;DHT22;59475;52.464;13.590;2023-07-13T08:12:47;28.98;41.97
71627;DHT22;59475;52.464;13.590;2023-07-13T08:15:15;29.09;41.50
71627;DHT22;59475;52.464;13.590;2023-07-13T08:17:40;28.06;43.17
71627;DHT22;59475;52.464;13.590;2023-07-13T08:20:06;27.87;43.53
71627;DHT22;59475;52.464;13.590;2023-07-13T08:25:54;28.05;43.98
71627;DHT22;59475;52.464;13.590;2023-07-13T08:31:41;26.24;47.25
71627;DHT22;59475;52.464;13.590;2023-07-13T08:34:06;25.62;48.89
71627;DHT22;59475;52.464;13.590;2023-07-13T08:39:53;26.14;49.86
71627;DHT22;59475;52.464;13.590;2023-07-13T08:51:09;27.00;44.42
71627;DHT22;59475;52.464;13.590;2023-07-13T08:53:43;26.89;46.53
71627;DHT22;59475;52.464;13.590;2023-07-13T08:59:33;27.34;45.62
71627;DHT22;59475;52.464;13.590;2023-07-13T09:08:37;28.59;43.86
71627;DHT22;59475;52.464;13.590;2023-07-13T09:14:33;29.30;41.42
71627;DHT22;59475;52.464;13.590;2023-07-13T09:20:31;29.22;40.46
71627;DHT22;59475;52.464;13.590;2023-07-13T09:23:02;29.36;39.97
71627;DHT22;59475;52.464;13.590;2023-07-13T09:28:02;28.61;40.40
71627;DHT22;59475;52.464;13.590;2023-07-13T09:36:33;29.26;37.50
71627;DHT22;59475;52.464;13.590;2023-07-13T09:39:26;29.38;37.21
71627;DHT22;59475;52.464;13.590;2023-07-13T09:44:38;29.59;38.19
71627;DHT22;59475;52.464;13.590;2023-07-13T09:47:19;28.94;37.11
71627;DHT22;59475;52.464;13.590;2023-07-13T09:49:47;28.88;39.98
71627;DHT22;59475;52.464;13.590;2023-07-13T09:52:15;28.71;39.13
71627;DHT22;59475;52.464;13.590;2023-07-13T09:54:45;29.12;38.35
71627;DHT22;59475;52.464;13.590;2023-07-13T09:57:15;28.64;39.48
71627;DHT22;59475;52.464;13.590;2023-07-13T10:03:09;26.77;40.40
71627;DHT22;59475;52.464;13.590;2023-07-13T10:09:00;25.93;43.49
71627;DHT22;59475;52.464;13.590;2023-07-13T10:11:28;26.12;43.58
71627;DHT22;59475;52.464;13.590;2023-07-13T10:17:27;26.26;43.89
71627;DHT22;59475;52.464;13.590;2023-07-13T10:19:57;27.00;42.64
71627;DHT22;59475;52.464;13.590;2023-07-13T10:22:29;27.50;41.63
71627;DHT22;59475;52.464;13.590;2023-07-13T10:28:25;27.82;40.87
71627;DHT22;59475;52.464;13.590;2023-07-13T10:30:53;27.61;41.11
71627;DHT22;59475;52.464;13.590;2023-07-13T10:33:20;27.26;41.77
71627;DHT22;59475;52.464;13.590;2023-07-13T10:35:48;26.78;42.62
71627;DHT22;59475;52.464;13.590;2023-07-13T10:38:21;26.58;43.72
71627;DHT22;59475;52.464;13.590;2023-07-13T10:41:06;26.39;43.90
71627;DHT22;59475;52.464;13.590;2023-07-13T10:43:42;26.03;45.04
71627;DHT22;59475;52.464;13.590;2023-07-13T10:49:31;26.24;43.79
71627;DHT22;59475;52.464;13.590;2023-07-13T10:51:57;27.02;42.25
71627;DHT22;59475;52.464;13.590;2023-07-13T11:02:59;28.77;37.98
71627;DHT22;59475;52.464;13.590;2023-07-13T11:05:32;28.71;38.18
71627;DHT22;59475;52.464;13.590;2023-07-13T11:10:59;28.49;38.19
71627;DHT22;59475;52.464;13.590;2023-07-13T11:16:34;29.02;37.92
71627;DHT22;59475;52.464;13.590;2023-07-13T11:22:24;29.81;36.35
71627;DHT22;59475;52.464;13.590;2023-07-13T11:25:01;30.05;36.04
71627;DHT22;59475;52.464;13.590;2023-07-13T11:33:31;30.55;35.02
71627;DHT22;59475;52.464;13.590;2023-07-13T11:38:41;30.22;35.07
71627;DHT22;59475;52.464;13.590;2023-07-13T11:41:17;30.03;34.21
71627;DHT22;59475;52.464;13.590;2023-07-13T11:43:45;29.38;35.30
71627;DHT22;59475;52.464;13.590;2023-07-13T11:49:32;29.74;35.48
71627;DHT22;59475;52.464;13.590;2023-07-13T11:51:57;29.74;34.33
71627;DHT22;59475;52.464;13.590;2023-07-13T11:54:30;29.90;31.55
71627;DHT22;59475;52.464;13.590;2023-07-13T12:00:22;30.31;32.83
71627;DHT22;59475;52.464;13.590;2023-07-13T12:02:50;29.83;33.56
71627;DHT22;59475;52.464;13.590;2023-07-13T12:05:18;30.03;33.81
71627;DHT22;59475;52.464;13.590;2023-07-13T12:11:16;29.62;34.85
71627;DHT22;59475;52.464;13.590;2023-07-13T12:13:43;29.80;34.24
71627;DHT22;59475;52.464;13.590;2023-07-13T12:16:31;30.03;34.09
71627;DHT22;59475;52.464;13.590;2023-07-13T12:18:59;29.98;35.20
71627;DHT22;59475;52.464;13.590;2023-07-13T12:21:38;29.83;36.32
71627;DHT22;59475;52.464;13.590;2023-07-13T12:24:04;29.96;35.27
71627;DHT22;59475;52.464;13.590;2023-07-13T12:26:31;29.91;34.98
71627;DHT22;59475;52.464;13.590;2023-07-13T12:29:00;29.96;34.87
71627;DHT22;59475;52.464;13.590;2023-07-13T12:31:46;30.17;34.55
71627;DHT22;59475;52.464;13.590;2023-07-13T12:34:13;29.45;35.04
71627;DHT22;59475;52.464;13.590;2023-07-13T12:37:08;29.30;34.87
71627;DHT22;59475;52.464;13.590;2023-07-13T12:39:47;29.11;34.95
71627;DHT22;59475;52.464;13.590;2023-07-13T12:42:25;28.68;35.88
71627;DHT22;59475;52.464;13.590;2023-07-13T12:44:59;28.67;36.92
71627;DHT22;59475;52.464;13.590;2023-07-13T12:47:26;28.49;36.58
71627;DHT22;59475;52.464;13.590;2023-07-13T12:49:57;28.73;36.74
71627;DHT22;59475;52.464;13.590;2023-07-13T12:52:29;28.54;36.91
71627;DHT22;59475;52.464;13.590;2023-07-13T12:55:19;28.68;36.53
71627;DHT22;59475;52.464;13.590;2023-07-13T13:01:07;27.67;37.46
71627;DHT22;59475;52.464;13.590;2023-07-13T13:03:39;27.36;38.44
71627;DHT22;59475;52.464;13.590;2023-07-13T13:06:18;27.23;37.85
71627;DHT22;59475;52.464;13.590;2023-07-13T13:08:46;27.39;39.16
71627;DHT22;59475;52.464;13.590;2023-07-13T13:11:14;27.42;39.43
71627;DHT22;59475;52.464;13.590;2023-07-13T13:13:44;27.40;39.31
71627;DHT22;59475;52.464;13.590;2023-07-13T13:16:16;27.40;39.82
71627;DHT22;59475;52.464;13.590;2023-07-13T13:18:42;27.22;38.99
71627;DHT22;59475;52.464;13.590;2023-07-13T13:21:09;27.06;39.70
71627;DHT22;59475;52.464;13.590;2023-07-13T13:23:34;27.37;39.32
71627;DHT22;59475;52.464;13.590;2023-07-13T13:26:00;27.57;39.94
71627;DHT22;59475;52.464;13.590;2023-07-13T13:28:26;27.74;39.68
71627;DHT22;59475;52.464;13.590;2023-07-13T13:30:51;27.53;38.76
71627;DHT22;59475;52.464;13.590;2023-07-13T13:33:19;26.99;39.45
71627;DHT22;59475;52.464;13.590;2023-07-13T13:39:28;27.16;39.90
71627;DHT22;59475;52.464;13.590;2023-07-13T13:41:54;27.13;39.60
71627;DHT22;59475;52.464;13.590;2023-07-13T13:44:21;27.15;39.74
71627;DHT22;59475;52.464;13.590;2023-07-13T13:46:52;27.26;39.96
71627;DHT22;59475;52.464;13.590;2023-07-13T13:49:21;27.37;39.11
71627;DHT22;59475;52.464;13.590;2023-07-13T13:51:47;27.27;39.09
71627;DHT22;59475;52.464;13.590;2023-07-13T13:54:14;26.52;39.73
71627;DHT22;59475;52.464;13.590;2023-07-13T13:56:46;26.86;39.73
71627;DHT22;59475;52.464;13.590;2023-07-13T13:59:13;26.96;39.75
71627;DHT22;59475;52.464;13.590;2023-07-13T14:01:40;27.05;38.53
71627;DHT22;59475;52.464;13.590;2023-07-13T14:04:20;27.20;38.68
71627;DHT22;59475;52.464;13.590;2023-07-13T14:06:47;27.23;38.32
71627;DHT22;59475;52.464;13.590;2023-07-13T14:09:15;27.09;39.19
71627;DHT22;59475;52.464;13.590;2023-07-13T14:11:42;27.12;38.70
71627;DHT22;59475;52.464;13.590;2023-07-13T14:14:14;26.94;38.50
71627;DHT22;59475;52.464;13.590;2023-07-13T14:16:41;27.13;39.21
71627;DHT22;59475;52.464;13.590;2023-07-13T14:19:10;27.05;38.11
71627;DHT22;59475;52.464;13.590;2023-07-13T14:24:58;26.95;38.88
71627;DHT22;59475;52.464;13.590;2023-07-13T14:27:24;27.06;38.87
71627;DHT22;59475;52.464;13.590;2023-07-13T14:29:50;27.07;39.30
71627;DHT22;59475;52.464;13.590;2023-07-13T14:32:15;27.09;39.09
71627;DHT22;59475;52.464;13.590;2023-07-13T14:34:41;27.02;39.48
71627;DHT22;59475;52.464;13.590;2023-07-13T14:37:13;26.68;38.89
71627;DHT22;59475;52.464;13.590;2023-07-13T14:39:38;26.82;39.57
71627;DHT22;59475;52.464;13.590;2023-07-13T14:42:04;26.84;39.03
71627;DHT22;59475;52.464;13.590;2023-07-13T14:44:31;26.68;39.43
71627;DHT22;59475;52.464;13.590;2023-07-13T14:46:58;26.69;39.34
71627;DHT22;59475;52.464;13.590;2023-07-13T14:55:20;26.34;39.42
71627;DHT22;59475;52.464;13.590;2023-07-13T14:57:46;26.45;39.20
71627;DHT22;59475;52.464;13.590;2023-07-13T15:00:17;26.78;39.73
71627;DHT22;59475;52.464;13.590;2023-07-13T15:02:45;26.82;39.65
71627;DHT22;59475;52.464;13.590;2023-07-13T15:05:20;26.75;39.42
71627;DHT22;59475;52.464;13.590;2023-07-13T15:07:48;26.96;40.06
71627;DHT22;59475;52.464;13.590;2023-07-13T15:12:43;26.95;39.58
71627;DHT22;59475;52.464;13.590;2023-07-13T15:15:08;26.86;39.95
71627;DHT22;59475;52.464;13.590;2023-07-13T15:17:39;26.64;39.64
71627;DHT22;59475;52.464;13.590;2023-07-13T15:20:29;26.72;40.07
71627;DHT22;59475;52.464;13.590;2023-07-13T15:22:56;26.77;39.65
71627;DHT22;59475;52.464;13.590;2023-07-13T15:25:27;26.81;39.37
71627;DHT22;59475;52.464;13.590;2023-07-13T15:27:53;26.84;39.61
71627;DHT22;59475;52.464;13.590;2023-07-13T15:30:20;26.94;40.49
71627;DHT22;59475;52.464;13.590;2023-07-13T15:32:47;26.94;39.47
71627;DHT22;59475;52.464;13.590;2023-07-13T15:35:14;26.98;39.25
71627;DHT22;59475;52.464;13.590;2023-07-13T15:37:40;26.85;38.11
71627;DHT22;59475;52.464;13.590;2023-07-13T15:40:06;26.62;38.11
71627;DHT22;59475;52.464;13.590;2023-07-13T15:42:32;26.43;38.29
71627;DHT22;59475;52.464;13.590;2023-07-13T15:44:57;26.30;38.19
71627;DHT22;59475;52.464;13.590;2023-07-13T15:47:23;26.44;39.64
71627;DHT22;59475;52.464;13.590;2023-07-13T15:49:49;26.47;38.52
71627;DHT22;59475;52.464;13.590;2023-07-13T15:52:18;26.37;37.85
71627;DHT22;59475;52.464;13.590;2023-07-13T15:54:45;26.19;38.47
71627;DHT22;59475;52.464;13.590;2023-07-13T15:57:11;26.02;38.09
71627;DHT22;59475;52.464;13.590;2023-07-13T16:02:58;26.23;37.96
71627;DHT22;59475;52.464;13.590;2023-07-13T16:05:24;26.20;37.57
71627;DHT22;59475;52.464;13.590;2023-07-13T16:07:50;26.20;38.21
71627;DHT22;59475;52.464;13.590;2023-07-13T16:10:21;26.14;38.02
71627;DHT22;59475;52.464;13.590;2023-07-13T16:12:47;26.13;39.05
71627;DHT22;59475;52.464;13.590;2023-07-13T16:15:16;26.00;38.81
71627;DHT22;59475;52.464;13.590;2023-07-13T16:17:43;26.00;38.67
71627;DHT22;59475;52.464;13.590;2023-07-13T16:20:09;25.90;39.28
71627;DHT22;59475;52.464;13.590;2023-07-13T16:22:39;25.92;39.07
71627;DHT22;59475;52.464;13.590;2023-07-13T16:25:13;25.88;40.03
71627;DHT22;59475;52.464;13.590;2023-07-13T16:27:39;25.76;39.34
71627;DHT22;59475;52.464;13.590;2023-07-13T16:30:30;25.82;39.86
71627;DHT22;59475;52.464;13.590;2023-07-13T16:32:59;25.76;38.96
71627;DHT22;59475;52.464;13.590;2023-07-13T16:35:30;25.84;39.46
71627;DHT22;59475;52.464;13.590;2023-07-13T16:38:00;25.85;39.11
71627;DHT22;59475;52.464;13.590;2023-07-13T16:40:33;25.88;39.71
71627;DHT22;59475;52.464;13.590;2023-07-13T16:42:59;25.82;40.34
71627;DHT22;59475;52.464;13.590;2023-07-13T16:45:28;25.84;39.75
71627;DHT22;59475;52.464;13.590;2023-07-13T16:47:56;25.82;39.02
71627;DHT22;59475;52.464;13.590;2023-07-13T16:50:24;25.85;39.86
71627;DHT22;59475;52.464;13.590;2023-07-13T16:52:51;25.85;39.39
71627;DHT22;59475;52.464;13.590;2023-07-13T16:55:20;25.75;39.37
71627;DHT22;59475;52.464;13.590;2023-07-13T16:57:53;25.61;39.17
71627;DHT22;59475;52.464;13.590;2023-07-13T17:00:22;25.55;39.14
71627;DHT22;59475;52.464;13.590;2023-07-13T17:02:54;25.45;39.82
71627;DHT22;59475;52.464;13.590;2023-07-13T17:05:28;25.27;39.48
71627;DHT22;59475;52.464;13.590;2023-07-13T17:07:53;25.10;39.78
71627;DHT22;59475;52.464;13.590;2023-07-13T17:13:40;25.02;39.51
71627;DHT22;59475;52.464;13.590;2023-07-13T17:16:09;25.02;39.81
71627;DHT22;59475;52.464;13.590;2023-07-13T17:18:34;24.96;40.95
71627;DHT22;59475;52.464;13.590;2023-07-13T17:21:03;24.97;40.22
71627;DHT22;59475;52.464;13.590;2023-07-13T17:23:29;24.83;40.50
71627;DHT22;59475;52.464;13.590;2023-07-13T17:25:55;24.80;41.59
71627;DHT22;59475;52.464;13.590;2023-07-13T17:28:22;23.72;48.65
71627;DHT22;59475;52.464;13.590;2023-07-13T17:30:51;22.73;53.16
71627;DHT22;59475;52.464;13.590;2023-07-13T17:35:56;21.45;58.80
71627;DHT22;59475;52.464;13.590;2023-07-13T17:38:30;21.08;60.42
71627;DHT22;59475;52.464;13.590;2023-07-13T17:40:55;20.80;61.59
71627;DHT22;59475;52.464;13.590;2023-07-13T17:43:21;20.44;62.98
71627;DHT22;59475;52.464;13.590;2023-07-13T17:45:49;20.39;63.47
71627;DHT22;59475;52.464;13.590;2023-07-13T17:48:15;20.12;64.70
71627;DHT22;59475;52.464;13.590;2023-07-13T17:54:09;19.86;65.65
71627;DHT22;59475;52.464;13.590;2023-07-13T17:56:37;19.57;66.31
71627;DHT22;59475;52.464;13.590;2023-07-13T17:59:03;19.51;66.73